Warroad, MN (56763)

07:16 CDT le 28 Mars 2015 (GMT -0500)
Warroad International-Carlson | | Change Station
CLOSE
Current Station
Aéroport
Location: Warroad,
Altitude: 1073 ft
Stations météo à proximité

Alt. 1073 ft 48.94 °N, 95.35 °W | Updated 22 minutes ago

Ciel dégagé
Ciel dégagé
21 ° F
Paraît 15 ° F
N
5
Vent Variable Vent de Sud

Aujourd'hui
Haut(e) -- | Bas -- ° F
--% Risque de précip.
Hier
Haut(e) -- | Bas -- ° F
Precip. -- pouce
7:07 AM 7:45 PM
Premier quartier, 62% visible
Pression 30.10 pouce
Visibilité 10.0 Miles terrestres
Nuages Ciel dégagé
Refroidissement éolien 15 ° F
Point de rosée 16 ° F
Humidité 80%
Précipitations 0.00 pouce
Profondeur de la couche neigeuse Non disponible.
UV 0 sur 12
Pollen .30 sur 12
Qualité de l'air Non disponible.
Flu Activity Non disponible.
METAR KRRT 281154Z AUTO 17004KT 10SM CLR M06/M09 A3010 RMK AO2

More Conditions Fewer Conditions

Pression 30.10 pouce
Visibilité 10.0 Miles terrestres
Nuages Ciel dégagé
Refroidissement éolien 15 ° F
Point de rosée 16 ° F
Humidité 80%
Précipitations 0.00 pouce
Profondeur de la couche neigeuse Non disponible.
UV 0 sur 12
Pollen .30 sur 12
Qualité de l'air Non disponible.
Flu Activity Non disponible.
METAR KRRT 281154Z AUTO 17004KT 10SM CLR M06/M09 A3010 RMK AO2

More Conditions Fewer Conditions

10-Day Weather Forecast

Almanac

Astronomie

Mar. 28, 2015 Lever Coucher
Temps réel
Crépuscule civil
Crépuscule nautique
Crépuscule astronomique
Lune
Durée de lumière visible
Longueur du jour
Tomorrow will be .
, % of the Moon is Illuminated

Extrêmes aujourd'hui

State Highs State Lows

Community

WunderPhotos

Upload Photos

1,808,964 Photos téléchargées !

WunderBlogs® & News

Nearby

Qualité de l'air

  Qualité de l'air Indice de la qualité de l'air Polluant
Not available.

Épaisseur de neige

Station Depth Altitude

Activité sismique

Ville Distance Mag. Time & Date
Minimum magnitude displayed is 2.5.

Températures des eaux côtières

Lieu Température

Stations

Stations météo à proximité

Emplacement de la station Température Refroidissement éolien Point de rosée Humidité Vent Precip. Alt. Mise à jour Type